Guarani International Airport
SGES : now visible

Airfield :











YOU CAN JOIN US ON...

 
LOGIN :

Register | Disclaimer

   EN    FR    IT 

 









Legend :    VFR   Marginal VFR   IFR   Intensive IFR   Very Intensive IFR
Visi :
Ceiling :
>= 8 km
>= 3000ft
5 to 8 km
1000 to 3000 ft
1500m to 5 km
500 to 1000 ft
800 to 1500m
200 to 500 ft
< 800m
< 200 ft
Symbols :   Thunderstorms  Fog  Heavy snow  Heavy precipitations  Wind > 20 kt






- Airport Elevation : 846 ft
- IATA code : AGT


SGES - Guarani International

CURRENT METAR :
  • 190700Z 00000KT CAVOK 16/16 Q1010

EXPIRED METARs :
  • 190600Z 00000KT CAVOK 17/17 Q1010

TAF TAF SGES
Valid from the 19 at 06:00 until the 20 at 06:00 UTC


190500Z 1906/2006 00000KT CAVOK TX30/1919Z TN16/1909Z
PROB30
TEMPO 1908/1910 00000KT 6000 NSC
BECMG 1911/1914 VRB03KT CAVOK
BECMG 1915/1918 15010KT 9999 SCT027
BECMG 1921/2000 21010KT CAVOK
SGFA FIR / South America



MET'MAP, your aeronautical weather chart ! - Copyright ORBIFLY December 2007 - Disclaimer

ORBIFLY MET'MAP TEAM :

Programming & Development : Alexandra Zaïnal
Concept & original design : Baudouin d'Aumeries
Assistance for programming : Marc-Olivier Méhu
Technical & hardware support : Manuel Goepfert

Contact : metmap@orbifly.com




SOURCES & CREDITS :

   NOAA       Earth
Advisory